Terminal Aerodrome Forecast
Issued by NWS Knoxville/Tri Cities, TN

Current Version | Previous Version | Text Only | Print | Product List | Glossary On
Versions: 1 2 3 4 5 6 7 8 9 10 11 12
000
FTUS44 KMRX 262320
TAFTYS
TAF
KTYS 262320Z 2700/2724 VRB03KT P6SM SCT050 BKN150
     FM271000 VRB02KT 4SM BR BKN025
     FM271300 00000KT P6SM BKN040
     FM271600 25005KT P6SM SCT030 BKN150
     FM272000 30005KT P6SM VCTS SCT040CB BKN150=

USA.gov is the U.S. government's official web portal to all federal, state and local government web resources and services.